sensor_id;sensor_type;location;lat;lon;timestamp;P1;durP1;ratioP1;P2;durP2;ratioP2
28774;SDS011;15926;51.348;6.596;2023-06-14T00:00:36;6.30;;;5.70;;
28774;SDS011;15926;51.348;6.596;2023-06-14T00:05:33;10.65;;;5.20;;
28774;SDS011;15926;51.348;6.596;2023-06-14T00:08:03;6.82;;;5.20;;
28774;SDS011;15926;51.348;6.596;2023-06-14T00:10:32;6.47;;;5.32;;
28774;SDS011;15926;51.348;6.596;2023-06-14T00:13:00;7.55;;;5.32;;
28774;SDS011;15926;51.348;6.596;2023-06-14T00:15:26;6.38;;;5.20;;
28774;SDS011;15926;51.348;6.596;2023-06-14T00:17:53;5.97;;;5.35;;
28774;SDS011;15926;51.348;6.596;2023-06-14T00:20:20;6.03;;;5.40;;
28774;SDS011;15926;51.348;6.596;2023-06-14T00:22:46;7.82;;;5.43;;
28774;SDS011;15926;51.348;6.596;2023-06-14T00:25:13;5.85;;;4.85;;
28774;SDS011;15926;51.348;6.596;2023-06-14T00:27:39;6.80;;;5.70;;
28774;SDS011;15926;51.348;6.596;2023-06-14T00:30:05;6.88;;;5.50;;
28774;SDS011;15926;51.348;6.596;2023-06-14T00:32:31;6.95;;;5.85;;
28774;SDS011;15926;51.348;6.596;2023-06-14T00:34:57;8.63;;;5.15;;
28774;SDS011;15926;51.348;6.596;2023-06-14T00:37:23;6.13;;;4.93;;
28774;SDS011;15926;51.348;6.596;2023-06-14T00:39:49;7.40;;;4.93;;
28774;SDS011;15926;51.348;6.596;2023-06-14T00:42:24;5.93;;;5.05;;
28774;SDS011;15926;51.348;6.596;2023-06-14T00:44:51;6.00;;;5.40;;
28774;SDS011;15926;51.348;6.596;2023-06-14T00:47:17;6.07;;;5.55;;
28774;SDS011;15926;51.348;6.596;2023-06-14T00:49:44;5.95;;;4.95;;
28774;SDS011;15926;51.348;6.596;2023-06-14T00:52:11;7.43;;;5.22;;
28774;SDS011;15926;51.348;6.596;2023-06-14T00:54:37;6.05;;;5.45;;
28774;SDS011;15926;51.348;6.596;2023-06-14T00:57:03;9.20;;;5.82;;
28774;SDS011;15926;51.348;6.596;2023-06-14T00:59:29;7.32;;;6.03;;
28774;SDS011;15926;51.348;6.596;2023-06-14T01:01:55;5.93;;;5.32;;
28774;SDS011;15926;51.348;6.596;2023-06-14T01:04:21;6.68;;;5.63;;
28774;SDS011;15926;51.348;6.596;2023-06-14T01:09:37;6.13;;;5.13;;
28774;SDS011;15926;51.348;6.596;2023-06-14T01:14:31;9.57;;;5.57;;
28774;SDS011;15926;51.348;6.596;2023-06-14T01:16:57;8.82;;;5.25;;
28774;SDS011;15926;51.348;6.596;2023-06-14T01:19:24;5.38;;;4.88;;
28774;SDS011;15926;51.348;6.596;2023-06-14T01:21:50;5.97;;;5.15;;
28774;SDS011;15926;51.348;6.596;2023-06-14T01:24:17;6.05;;;5.15;;
28774;SDS011;15926;51.348;6.596;2023-06-14T01:26:50;6.13;;;5.13;;
28774;SDS011;15926;51.348;6.596;2023-06-14T01:29:20;6.13;;;4.93;;
28774;SDS011;15926;51.348;6.596;2023-06-14T01:31:46;6.32;;;5.32;;
28774;SDS011;15926;51.348;6.596;2023-06-14T01:34:13;5.80;;;5.10;;
28774;SDS011;15926;51.348;6.596;2023-06-14T01:36:39;6.22;;;5.47;;
28774;SDS011;15926;51.348;6.596;2023-06-14T01:39:06;7.38;;;5.28;;
28774;SDS011;15926;51.348;6.596;2023-06-14T01:41:32;10.13;;;5.28;;
28774;SDS011;15926;51.348;6.596;2023-06-14T01:43:59;6.32;;;5.30;;
28774;SDS011;15926;51.348;6.596;2023-06-14T01:46:25;6.32;;;5.15;;
28774;SDS011;15926;51.348;6.596;2023-06-14T01:48:51;6.93;;;5.10;;
28774;SDS011;15926;51.348;6.596;2023-06-14T01:51:18;7.68;;;5.30;;
28774;SDS011;15926;51.348;6.596;2023-06-14T01:53:44;9.65;;;5.18;;
28774;SDS011;15926;51.348;6.596;2023-06-14T01:56:11;5.80;;;5.30;;
28774;SDS011;15926;51.348;6.596;2023-06-14T01:58:37;6.00;;;5.45;;
28774;SDS011;15926;51.348;6.596;2023-06-14T02:01:07;5.80;;;5.18;;
28774;SDS011;15926;51.348;6.596;2023-06-14T02:03:33;6.10;;;5.15;;
28774;SDS011;15926;51.348;6.596;2023-06-14T02:05:59;5.72;;;5.13;;
28774;SDS011;15926;51.348;6.596;2023-06-14T02:08:25;7.00;;;5.55;;
28774;SDS011;15926;51.348;6.596;2023-06-14T02:10:51;9.57;;;5.65;;
28774;SDS011;15926;51.348;6.596;2023-06-14T02:13:17;7.18;;;5.47;;
28774;SDS011;15926;51.348;6.596;2023-06-14T02:15:43;6.18;;;4.85;;
28774;SDS011;15926;51.348;6.596;2023-06-14T02:18:10;6.45;;;4.90;;
28774;SDS011;15926;51.348;6.596;2023-06-14T02:20:36;8.48;;;4.82;;
28774;SDS011;15926;51.348;6.596;2023-06-14T02:23:03;4.70;;;4.35;;
28774;SDS011;15926;51.348;6.596;2023-06-14T02:25:29;5.50;;;5.00;;
28774;SDS011;15926;51.348;6.596;2023-06-14T02:27:55;8.43;;;4.95;;
28774;SDS011;15926;51.348;6.596;2023-06-14T02:30:21;5.82;;;5.22;;
28774;SDS011;15926;51.348;6.596;2023-06-14T02:32:47;5.57;;;4.10;;
28774;SDS011;15926;51.348;6.596;2023-06-14T02:35:13;5.97;;;4.45;;
28774;SDS011;15926;51.348;6.596;2023-06-14T02:37:40;6.28;;;4.53;;
28774;SDS011;15926;51.348;6.596;2023-06-14T02:40:07;5.82;;;4.63;;
28774;SDS011;15926;51.348;6.596;2023-06-14T02:42:34;4.63;;;4.22;;
28774;SDS011;15926;51.348;6.596;2023-06-14T02:45:00;6.03;;;4.63;;
28774;SDS011;15926;51.348;6.596;2023-06-14T02:47:27;4.43;;;4.07;;
28774;SDS011;15926;51.348;6.596;2023-06-14T02:49:53;4.88;;;4.13;;
28774;SDS011;15926;51.348;6.596;2023-06-14T02:52:19;6.05;;;4.50;;
28774;SDS011;15926;51.348;6.596;2023-06-14T02:54:45;6.47;;;4.40;;
28774;SDS011;15926;51.348;6.596;2023-06-14T02:57:12;6.45;;;4.32;;
28774;SDS011;15926;51.348;6.596;2023-06-14T02:59:38;5.82;;;5.15;;
28774;SDS011;15926;51.348;6.596;2023-06-14T03:02:04;4.15;;;3.85;;
28774;SDS011;15926;51.348;6.596;2023-06-14T03:04:30;5.45;;;4.50;;
28774;SDS011;15926;51.348;6.596;2023-06-14T03:07:02;4.80;;;4.25;;
28774;SDS011;15926;51.348;6.596;2023-06-14T03:09:34;4.53;;;4.07;;
28774;SDS011;15926;51.348;6.596;2023-06-14T03:12:01;9.32;;;4.40;;
28774;SDS011;15926;51.348;6.596;2023-06-14T03:14:28;6.40;;;4.28;;
28774;SDS011;15926;51.348;6.596;2023-06-14T03:16:55;7.80;;;5.13;;
28774;SDS011;15926;51.348;6.596;2023-06-14T03:19:22;5.18;;;4.72;;
28774;SDS011;15926;51.348;6.596;2023-06-14T03:21:48;6.15;;;4.82;;
28774;SDS011;15926;51.348;6.596;2023-06-14T03:24:14;6.32;;;4.88;;
28774;SDS011;15926;51.348;6.596;2023-06-14T03:26:44;5.53;;;4.28;;
28774;SDS011;15926;51.348;6.596;2023-06-14T03:29:11;8.27;;;4.63;;
28774;SDS011;15926;51.348;6.596;2023-06-14T03:31:41;8.30;;;4.32;;
28774;SDS011;15926;51.348;6.596;2023-06-14T03:34:21;5.70;;;4.82;;
28774;SDS011;15926;51.348;6.596;2023-06-14T03:36:47;7.07;;;4.93;;
28774;SDS011;15926;51.348;6.596;2023-06-14T03:39:14;6.95;;;4.65;;
28774;SDS011;15926;51.348;6.596;2023-06-14T03:41:40;11.88;;;4.63;;
28774;SDS011;15926;51.348;6.596;2023-06-14T03:44:06;5.65;;;4.05;;
28774;SDS011;15926;51.348;6.596;2023-06-14T03:46:32;4.43;;;4.00;;
28774;SDS011;15926;51.348;6.596;2023-06-14T03:48:58;5.28;;;4.47;;
28774;SDS011;15926;51.348;6.596;2023-06-14T03:51:25;6.57;;;3.97;;
28774;SDS011;15926;51.348;6.596;2023-06-14T03:53:51;6.15;;;3.80;;
28774;SDS011;15926;51.348;6.596;2023-06-14T03:56:17;6.10;;;4.63;;
28774;SDS011;15926;51.348;6.596;2023-06-14T03:58:43;11.20;;;5.15;;
28774;SDS011;15926;51.348;6.596;2023-06-14T04:01:09;8.75;;;5.50;;
28774;SDS011;15926;51.348;6.596;2023-06-14T04:03:37;5.00;;;4.43;;
28774;SDS011;15926;51.348;6.596;2023-06-14T04:06:03;6.60;;;4.60;;
28774;SDS011;15926;51.348;6.596;2023-06-14T04:08:30;7.15;;;5.03;;
28774;SDS011;15926;51.348;6.596;2023-06-14T04:10:56;8.57;;;4.78;;
28774;SDS011;15926;51.348;6.596;2023-06-14T04:13:22;8.95;;;4.65;;
28774;SDS011;15926;51.348;6.596;2023-06-14T04:15:48;6.65;;;5.70;;
28774;SDS011;15926;51.348;6.596;2023-06-14T04:18:14;8.20;;;4.90;;
28774;SDS011;15926;51.348;6.596;2023-06-14T04:20:40;5.93;;;4.82;;
28774;SDS011;15926;51.348;6.596;2023-06-14T04:23:13;6.72;;;4.68;;
28774;SDS011;15926;51.348;6.596;2023-06-14T04:25:39;7.43;;;5.13;;
28774;SDS011;15926;51.348;6.596;2023-06-14T04:28:05;5.38;;;4.78;;
28774;SDS011;15926;51.348;6.596;2023-06-14T04:30:34;10.35;;;4.75;;
28774;SDS011;15926;51.348;6.596;2023-06-14T04:33:02;9.23;;;4.75;;
28774;SDS011;15926;51.348;6.596;2023-06-14T04:35:30;8.68;;;5.43;;
28774;SDS011;15926;51.348;6.596;2023-06-14T04:37:57;4.93;;;4.47;;
28774;SDS011;15926;51.348;6.596;2023-06-14T04:40:23;6.13;;;4.18;;
28774;SDS011;15926;51.348;6.596;2023-06-14T04:42:49;6.88;;;4.03;;
28774;SDS011;15926;51.348;6.596;2023-06-14T04:45:16;4.85;;;4.30;;
28774;SDS011;15926;51.348;6.596;2023-06-14T04:47:42;7.20;;;3.88;;
28774;SDS011;15926;51.348;6.596;2023-06-14T04:50:09;6.03;;;3.30;;
28774;SDS011;15926;51.348;6.596;2023-06-14T04:52:36;4.00;;;3.45;;
28774;SDS011;15926;51.348;6.596;2023-06-14T04:55:02;7.78;;;3.72;;
28774;SDS011;15926;51.348;6.596;2023-06-14T04:57:28;5.15;;;3.55;;
28774;SDS011;15926;51.348;6.596;2023-06-14T04:59:55;9.57;;;3.53;;
28774;SDS011;15926;51.348;6.596;2023-06-14T05:02:22;5.88;;;3.20;;
28774;SDS011;15926;51.348;6.596;2023-06-14T05:04:48;6.60;;;4.20;;
28774;SDS011;15926;51.348;6.596;2023-06-14T05:07:14;5.18;;;3.30;;
28774;SDS011;15926;51.348;6.596;2023-06-14T05:09:40;7.07;;;3.60;;
28774;SDS011;15926;51.348;6.596;2023-06-14T05:12:06;8.00;;;3.75;;
28774;SDS011;15926;51.348;6.596;2023-06-14T05:14:33;4.88;;;3.55;;
28774;SDS011;15926;51.348;6.596;2023-06-14T05:16:59;5.53;;;3.83;;
28774;SDS011;15926;51.348;6.596;2023-06-14T05:19:26;6.50;;;3.40;;
28774;SDS011;15926;51.348;6.596;2023-06-14T05:21:52;3.88;;;3.25;;
28774;SDS011;15926;51.348;6.596;2023-06-14T05:24:18;4.40;;;3.40;;
28774;SDS011;15926;51.348;6.596;2023-06-14T05:26:45;14.23;;;3.20;;
28774;SDS011;15926;51.348;6.596;2023-06-14T05:29:11;4.72;;;3.70;;
28774;SDS011;15926;51.348;6.596;2023-06-14T05:31:37;8.43;;;3.65;;
28774;SDS011;15926;51.348;6.596;2023-06-14T05:34:04;6.88;;;3.30;;
28774;SDS011;15926;51.348;6.596;2023-06-14T05:36:30;4.75;;;3.70;;
28774;SDS011;15926;51.348;6.596;2023-06-14T05:38:56;4.10;;;3.63;;
28774;SDS011;15926;51.348;6.596;2023-06-14T05:41:26;6.60;;;3.60;;
28774;SDS011;15926;51.348;6.596;2023-06-14T05:43:52;4.05;;;3.50;;
28774;SDS011;15926;51.348;6.596;2023-06-14T05:46:18;5.70;;;3.67;;
28774;SDS011;15926;51.348;6.596;2023-06-14T05:48:47;3.50;;;3.20;;
28774;SDS011;15926;51.348;6.596;2023-06-14T05:51:13;7.85;;;3.08;;
28774;SDS011;15926;51.348;6.596;2023-06-14T05:53:39;6.75;;;4.00;;
28774;SDS011;15926;51.348;6.596;2023-06-14T05:56:05;6.15;;;3.60;;
28774;SDS011;15926;51.348;6.596;2023-06-14T05:58:31;5.18;;;3.72;;
28774;SDS011;15926;51.348;6.596;2023-06-14T06:00:57;8.13;;;3.63;;
28774;SDS011;15926;51.348;6.596;2023-06-14T06:03:23;9.07;;;3.38;;
28774;SDS011;15926;51.348;6.596;2023-06-14T06:05:49;5.28;;;3.47;;
28774;SDS011;15926;51.348;6.596;2023-06-14T06:08:15;6.72;;;3.72;;
28774;SDS011;15926;51.348;6.596;2023-06-14T06:10:42;4.70;;;3.70;;
28774;SDS011;15926;51.348;6.596;2023-06-14T06:13:08;7.32;;;3.20;;
28774;SDS011;15926;51.348;6.596;2023-06-14T06:15:35;4.90;;;3.20;;
28774;SDS011;15926;51.348;6.596;2023-06-14T06:18:01;4.05;;;3.20;;
28774;SDS011;15926;51.348;6.596;2023-06-14T06:20:27;5.03;;;3.15;;
28774;SDS011;15926;51.348;6.596;2023-06-14T06:22:55;5.25;;;3.42;;
28774;SDS011;15926;51.348;6.596;2023-06-14T06:25:21;4.63;;;2.80;;
28774;SDS011;15926;51.348;6.596;2023-06-14T06:27:47;3.28;;;2.85;;
28774;SDS011;15926;51.348;6.596;2023-06-14T06:30:13;5.13;;;2.92;;
28774;SDS011;15926;51.348;6.596;2023-06-14T06:32:39;5.13;;;3.20;;
28774;SDS011;15926;51.348;6.596;2023-06-14T06:35:05;6.40;;;2.50;;
28774;SDS011;15926;51.348;6.596;2023-06-14T06:37:33;8.10;;;3.03;;
28774;SDS011;15926;51.348;6.596;2023-06-14T06:39:59;4.72;;;2.50;;
28774;SDS011;15926;51.348;6.596;2023-06-14T06:42:25;4.22;;;3.28;;
28774;SDS011;15926;51.348;6.596;2023-06-14T06:44:51;4.85;;;2.22;;
28774;SDS011;15926;51.348;6.596;2023-06-14T06:47:18;3.20;;;2.10;;
28774;SDS011;15926;51.348;6.596;2023-06-14T06:49:43;10.50;;;2.90;;
28774;SDS011;15926;51.348;6.596;2023-06-14T06:52:10;2.70;;;2.38;;
28774;SDS011;15926;51.348;6.596;2023-06-14T06:54:36;6.25;;;2.55;;
28774;SDS011;15926;51.348;6.596;2023-06-14T06:57:02;5.40;;;2.70;;
28774;SDS011;15926;51.348;6.596;2023-06-14T06:59:28;3.72;;;2.55;;
28774;SDS011;15926;51.348;6.596;2023-06-14T07:01:55;5.72;;;2.00;;
28774;SDS011;15926;51.348;6.596;2023-06-14T07:04:21;2.83;;;1.88;;
28774;SDS011;15926;51.348;6.596;2023-06-14T07:06:47;2.65;;;2.15;;
28774;SDS011;15926;51.348;6.596;2023-06-14T07:09:13;5.75;;;2.08;;
28774;SDS011;15926;51.348;6.596;2023-06-14T07:11:41;6.45;;;2.17;;
28774;SDS011;15926;51.348;6.596;2023-06-14T07:14:07;2.78;;;1.80;;
28774;SDS011;15926;51.348;6.596;2023-06-14T07:16:33;3.15;;;2.00;;
28774;SDS011;15926;51.348;6.596;2023-06-14T07:18:59;2.42;;;2.22;;
28774;SDS011;15926;51.348;6.596;2023-06-14T07:21:25;1.73;;;1.63;;
28774;SDS011;15926;51.348;6.596;2023-06-14T07:23:54;1.58;;;1.40;;
28774;SDS011;15926;51.348;6.596;2023-06-14T07:26:21;4.03;;;1.60;;
28774;SDS011;15926;51.348;6.596;2023-06-14T07:28:47;3.65;;;1.55;;
28774;SDS011;15926;51.348;6.596;2023-06-14T07:31:14;3.75;;;1.63;;
28774;SDS011;15926;51.348;6.596;2023-06-14T07:33:40;2.88;;;1.50;;
28774;SDS011;15926;51.348;6.596;2023-06-14T07:36:07;1.40;;;1.30;;
28774;SDS011;15926;51.348;6.596;2023-06-14T07:38:33;1.88;;;1.20;;
28774;SDS011;15926;51.348;6.596;2023-06-14T07:40:59;2.80;;;1.13;;
28774;SDS011;15926;51.348;6.596;2023-06-14T07:43:25;1.33;;;1.20;;
28774;SDS011;15926;51.348;6.596;2023-06-14T07:45:51;2.33;;;1.00;;
28774;SDS011;15926;51.348;6.596;2023-06-14T07:48:17;1.40;;;1.30;;
28774;SDS011;15926;51.348;6.596;2023-06-14T07:50:44;2.20;;;1.25;;
28774;SDS011;15926;51.348;6.596;2023-06-14T07:53:10;1.83;;;1.45;;
28774;SDS011;15926;51.348;6.596;2023-06-14T07:55:36;1.50;;;1.40;;
28774;SDS011;15926;51.348;6.596;2023-06-14T07:58:02;3.55;;;1.42;;
28774;SDS011;15926;51.348;6.596;2023-06-14T08:00:28;6.55;;;2.05;;
28774;SDS011;15926;51.348;6.596;2023-06-14T08:02:55;2.80;;;1.17;;
28774;SDS011;15926;51.348;6.596;2023-06-14T08:05:23;2.70;;;1.67;;
28774;SDS011;15926;51.348;6.596;2023-06-14T08:07:50;2.15;;;1.33;;
28774;SDS011;15926;51.348;6.596;2023-06-14T08:10:16;1.92;;;1.30;;
28774;SDS011;15926;51.348;6.596;2023-06-14T08:12:42;1.95;;;1.30;;
28774;SDS011;15926;51.348;6.596;2023-06-14T08:15:09;2.38;;;1.40;;
28774;SDS011;15926;51.348;6.596;2023-06-14T08:17:35;2.63;;;1.10;;
28774;SDS011;15926;51.348;6.596;2023-06-14T08:20:01;4.93;;;1.30;;
28774;SDS011;15926;51.348;6.596;2023-06-14T08:22:28;3.10;;;1.35;;
28774;SDS011;15926;51.348;6.596;2023-06-14T08:24:58;1.50;;;1.20;;
28774;SDS011;15926;51.348;6.596;2023-06-14T08:27:24;3.30;;;1.30;;
28774;SDS011;15926;51.348;6.596;2023-06-14T08:29:50;2.70;;;1.13;;
28774;SDS011;15926;51.348;6.596;2023-06-14T08:32:16;2.17;;;1.70;;
28774;SDS011;15926;51.348;6.596;2023-06-14T08:34:42;2.13;;;1.40;;
28774;SDS011;15926;51.348;6.596;2023-06-14T08:37:08;3.40;;;1.33;;
28774;SDS011;15926;51.348;6.596;2023-06-14T08:39:34;2.40;;;1.30;;
28774;SDS011;15926;51.348;6.596;2023-06-14T08:42:01;2.58;;;1.30;;
28774;SDS011;15926;51.348;6.596;2023-06-14T08:44:28;2.83;;;1.42;;
28774;SDS011;15926;51.348;6.596;2023-06-14T08:46:55;1.73;;;1.50;;
28774;SDS011;15926;51.348;6.596;2023-06-14T08:49:24;2.83;;;1.30;;
28774;SDS011;15926;51.348;6.596;2023-06-14T08:51:55;1.58;;;1.40;;
28774;SDS011;15926;51.348;6.596;2023-06-14T08:54:22;3.40;;;1.83;;
28774;SDS011;15926;51.348;6.596;2023-06-14T08:56:49;4.35;;;1.60;;
28774;SDS011;15926;51.348;6.596;2023-06-14T08:59:17;1.50;;;1.40;;
28774;SDS011;15926;51.348;6.596;2023-06-14T09:01:43;1.70;;;1.60;;
28774;SDS011;15926;51.348;6.596;2023-06-14T09:04:10;2.75;;;1.27;;
28774;SDS011;15926;51.348;6.596;2023-06-14T09:06:36;2.20;;;1.48;;
28774;SDS011;15926;51.348;6.596;2023-06-14T09:09:02;2.53;;;1.60;;
28774;SDS011;15926;51.348;6.596;2023-06-14T09:11:29;3.00;;;1.65;;
28774;SDS011;15926;51.348;6.596;2023-06-14T09:13:55;1.52;;;1.38;;
28774;SDS011;15926;51.348;6.596;2023-06-14T09:16:21;4.03;;;1.60;;
28774;SDS011;15926;51.348;6.596;2023-06-14T09:18:48;1.75;;;1.35;;
28774;SDS011;15926;51.348;6.596;2023-06-14T09:21:14;1.40;;;1.30;;
28774;SDS011;15926;51.348;6.596;2023-06-14T09:23:41;6.50;;;1.13;;
28774;SDS011;15926;51.348;6.596;2023-06-14T09:26:09;1.65;;;1.20;;
28774;SDS011;15926;51.348;6.596;2023-06-14T09:28:35;7.55;;;2.03;;
28774;SDS011;15926;51.348;6.596;2023-06-14T09:31:01;1.58;;;1.20;;
28774;SDS011;15926;51.348;6.596;2023-06-14T09:33:28;4.22;;;1.50;;
28774;SDS011;15926;51.348;6.596;2023-06-14T09:35:54;1.63;;;1.52;;
28774;SDS011;15926;51.348;6.596;2023-06-14T09:38:20;3.00;;;1.45;;
28774;SDS011;15926;51.348;6.596;2023-06-14T09:40:46;4.88;;;1.80;;
28774;SDS011;15926;51.348;6.596;2023-06-14T09:43:12;2.20;;;1.50;;
28774;SDS011;15926;51.348;6.596;2023-06-14T09:45:39;2.53;;;1.73;;
28774;SDS011;15926;51.348;6.596;2023-06-14T09:48:06;4.28;;;1.50;;
28774;SDS011;15926;51.348;6.596;2023-06-14T09:50:33;5.50;;;1.70;;
28774;SDS011;15926;51.348;6.596;2023-06-14T09:53:03;2.67;;;1.67;;
28774;SDS011;15926;51.348;6.596;2023-06-14T09:55:31;4.05;;;1.80;;
28774;SDS011;15926;51.348;6.596;2023-06-14T09:58:00;3.65;;;1.45;;
28774;SDS011;15926;51.348;6.596;2023-06-14T10:02:58;3.33;;;1.48;;
28774;SDS011;15926;51.348;6.596;2023-06-14T10:05:26;2.88;;;1.42;;
28774;SDS011;15926;51.348;6.596;2023-06-14T10:07:56;4.63;;;1.20;;
28774;SDS011;15926;51.348;6.596;2023-06-14T10:10:25;1.52;;;1.30;;
28774;SDS011;15926;51.348;6.596;2023-06-14T10:12:51;7.25;;;1.58;;
28774;SDS011;15926;51.348;6.596;2023-06-14T10:15:24;3.08;;;1.48;;
28774;SDS011;15926;51.348;6.596;2023-06-14T10:17:57;4.43;;;1.40;;
28774;SDS011;15926;51.348;6.596;2023-06-14T10:20:30;2.22;;;1.20;;
28774;SDS011;15926;51.348;6.596;2023-06-14T10:23:03;2.47;;;1.30;;
28774;SDS011;15926;51.348;6.596;2023-06-14T10:25:33;1.90;;;1.30;;
28774;SDS011;15926;51.348;6.596;2023-06-14T10:33:29;3.60;;;1.10;;
28774;SDS011;15926;51.348;6.596;2023-06-14T10:38:33;3.05;;;1.08;;
28774;SDS011;15926;51.348;6.596;2023-06-14T10:41:01;2.67;;;0.95;;
28774;SDS011;15926;51.348;6.596;2023-06-14T10:43:27;2.38;;;1.20;;
28774;SDS011;15926;51.348;6.596;2023-06-14T10:48:41;2.65;;;1.35;;
28774;SDS011;15926;51.348;6.596;2023-06-14T10:51:15;3.63;;;1.10;;
28774;SDS011;15926;51.348;6.596;2023-06-14T10:53:45;1.17;;;1.13;;
28774;SDS011;15926;51.348;6.596;2023-06-14T10:56:27;1.83;;;1.13;;
28774;SDS011;15926;51.348;6.596;2023-06-14T10:58:54;1.88;;;1.15;;
28774;SDS011;15926;51.348;6.596;2023-06-14T11:01:36;2.63;;;1.05;;
28774;SDS011;15926;51.348;6.596;2023-06-14T11:04:09;2.38;;;1.02;;
28774;SDS011;15926;51.348;6.596;2023-06-14T11:06:54;4.85;;;1.10;;
28774;SDS011;15926;51.348;6.596;2023-06-14T11:09:31;1.55;;;1.10;;
28774;SDS011;15926;51.348;6.596;2023-06-14T11:12:06;1.05;;;0.85;;
28774;SDS011;15926;51.348;6.596;2023-06-14T11:14:33;1.73;;;0.90;;
28774;SDS011;15926;51.348;6.596;2023-06-14T11:17:00;2.05;;;1.02;;
28774;SDS011;15926;51.348;6.596;2023-06-14T11:19:26;2.78;;;1.00;;
28774;SDS011;15926;51.348;6.596;2023-06-14T11:21:53;1.65;;;0.80;;
28774;SDS011;15926;51.348;6.596;2023-06-14T11:24:19;2.25;;;1.13;;
28774;SDS011;15926;51.348;6.596;2023-06-14T11:26:46;2.60;;;0.80;;
28774;SDS011;15926;51.348;6.596;2023-06-14T11:29:14;1.13;;;1.00;;
28774;SDS011;15926;51.348;6.596;2023-06-14T11:31:44;1.40;;;0.70;;
28774;SDS011;15926;51.348;6.596;2023-06-14T11:34:11;1.77;;;0.80;;
28774;SDS011;15926;51.348;6.596;2023-06-14T11:36:38;2.85;;;0.95;;
28774;SDS011;15926;51.348;6.596;2023-06-14T11:39:04;1.55;;;0.95;;
28774;SDS011;15926;51.348;6.596;2023-06-14T11:41:52;1.38;;;0.93;;
28774;SDS011;15926;51.348;6.596;2023-06-14T11:44:17;3.22;;;1.00;;
28774;SDS011;15926;51.348;6.596;2023-06-14T11:46:44;3.10;;;1.23;;
28774;SDS011;15926;51.348;6.596;2023-06-14T11:49:10;2.88;;;0.90;;
28774;SDS011;15926;51.348;6.596;2023-06-14T11:51:36;1.50;;;0.70;;
28774;SDS011;15926;51.348;6.596;2023-06-14T11:54:03;0.70;;;0.70;;
28774;SDS011;15926;51.348;6.596;2023-06-14T11:56:30;1.30;;;1.00;;
28774;SDS011;15926;51.348;6.596;2023-06-14T11:58:57;0.98;;;0.70;;
28774;SDS011;15926;51.348;6.596;2023-06-14T12:01:23;1.33;;;0.90;;
28774;SDS011;15926;51.348;6.596;2023-06-14T12:03:50;1.05;;;0.80;;
28774;SDS011;15926;51.348;6.596;2023-06-14T12:06:19;2.67;;;1.00;;
28774;SDS011;15926;51.348;6.596;2023-06-14T12:08:55;0.68;;;0.68;;
28774;SDS011;15926;51.348;6.596;2023-06-14T12:11:21;1.23;;;0.93;;
28774;SDS011;15926;51.348;6.596;2023-06-14T12:13:47;0.85;;;0.85;;
28774;SDS011;15926;51.348;6.596;2023-06-14T12:16:14;1.25;;;1.00;;
28774;SDS011;15926;51.348;6.596;2023-06-14T12:18:40;1.65;;;0.85;;
28774;SDS011;15926;51.348;6.596;2023-06-14T12:21:08;3.67;;;1.23;;
28774;SDS011;15926;51.348;6.596;2023-06-14T12:23:45;3.92;;;1.10;;
28774;SDS011;15926;51.348;6.596;2023-06-14T12:26:18;5.75;;;1.30;;
28774;SDS011;15926;51.348;6.596;2023-06-14T12:28:45;3.92;;;1.08;;
28774;SDS011;15926;51.348;6.596;2023-06-14T12:31:12;1.75;;;1.30;;
28774;SDS011;15926;51.348;6.596;2023-06-14T12:33:38;2.03;;;1.20;;
28774;SDS011;15926;51.348;6.596;2023-06-14T12:36:05;2.17;;;1.10;;
28774;SDS011;15926;51.348;6.596;2023-06-14T12:38:32;3.47;;;0.95;;
28774;SDS011;15926;51.348;6.596;2023-06-14T12:40:58;2.53;;;1.02;;
28774;SDS011;15926;51.348;6.596;2023-06-14T12:43:25;5.68;;;1.00;;
28774;SDS011;15926;51.348;6.596;2023-06-14T12:45:51;2.33;;;1.27;;
28774;SDS011;15926;51.348;6.596;2023-06-14T12:48:17;5.50;;;1.10;;
28774;SDS011;15926;51.348;6.596;2023-06-14T12:50:43;2.65;;;1.15;;
28774;SDS011;15926;51.348;6.596;2023-06-14T12:53:09;1.58;;;0.80;;
28774;SDS011;15926;51.348;6.596;2023-06-14T12:55:35;3.75;;;0.90;;
28774;SDS011;15926;51.348;6.596;2023-06-14T12:58:02;2.35;;;1.20;;
28774;SDS011;15926;51.348;6.596;2023-06-14T13:00:28;1.80;;;1.00;;
28774;SDS011;15926;51.348;6.596;2023-06-14T13:02:55;1.38;;;0.70;;
28774;SDS011;15926;51.348;6.596;2023-06-14T13:05:21;1.60;;;1.00;;
28774;SDS011;15926;51.348;6.596;2023-06-14T13:07:47;1.33;;;0.80;;
28774;SDS011;15926;51.348;6.596;2023-06-14T13:10:13;1.70;;;0.70;;
28774;SDS011;15926;51.348;6.596;2023-06-14T13:12:39;2.35;;;1.05;;
28774;SDS011;15926;51.348;6.596;2023-06-14T13:15:07;5.28;;;0.95;;
28774;SDS011;15926;51.348;6.596;2023-06-14T13:17:34;2.95;;;1.20;;
28774;SDS011;15926;51.348;6.596;2023-06-14T13:20:04;1.20;;;1.10;;
28774;SDS011;15926;51.348;6.596;2023-06-14T13:22:30;3.72;;;0.95;;
28774;SDS011;15926;51.348;6.596;2023-06-14T13:24:56;3.90;;;1.65;;
28774;SDS011;15926;51.348;6.596;2023-06-14T13:27:22;3.38;;;1.42;;
28774;SDS011;15926;51.348;6.596;2023-06-14T13:29:49;1.67;;;1.30;;
28774;SDS011;15926;51.348;6.596;2023-06-14T13:32:15;4.13;;;1.55;;
28774;SDS011;15926;51.348;6.596;2023-06-14T13:34:41;2.30;;;1.30;;
28774;SDS011;15926;51.348;6.596;2023-06-14T13:37:07;3.08;;;1.30;;
28774;SDS011;15926;51.348;6.596;2023-06-14T13:39:33;2.40;;;1.27;;
28774;SDS011;15926;51.348;6.596;2023-06-14T13:42:02;1.55;;;1.45;;
28774;SDS011;15926;51.348;6.596;2023-06-14T13:44:28;1.42;;;1.10;;
28774;SDS011;15926;51.348;6.596;2023-06-14T13:46:54;8.10;;;1.00;;
28774;SDS011;15926;51.348;6.596;2023-06-14T13:49:20;3.90;;;1.17;;
28774;SDS011;15926;51.348;6.596;2023-06-14T13:51:46;3.92;;;1.30;;
28774;SDS011;15926;51.348;6.596;2023-06-14T13:54:12;4.45;;;1.85;;
28774;SDS011;15926;51.348;6.596;2023-06-14T13:56:42;3.15;;;1.50;;
28774;SDS011;15926;51.348;6.596;2023-06-14T13:59:08;4.28;;;1.40;;
28774;SDS011;15926;51.348;6.596;2023-06-14T14:01:34;1.23;;;1.10;;
28774;SDS011;15926;51.348;6.596;2023-06-14T14:04:00;2.95;;;1.33;;
28774;SDS011;15926;51.348;6.596;2023-06-14T14:06:27;1.50;;;1.40;;
28774;SDS011;15926;51.348;6.596;2023-06-14T14:08:53;4.90;;;1.40;;
28774;SDS011;15926;51.348;6.596;2023-06-14T14:11:19;3.20;;;1.30;;
28774;SDS011;15926;51.348;6.596;2023-06-14T14:13:45;3.17;;;1.48;;
28774;SDS011;15926;51.348;6.596;2023-06-14T14:16:12;2.95;;;2.00;;
28774;SDS011;15926;51.348;6.596;2023-06-14T14:18:38;2.00;;;1.55;;
28774;SDS011;15926;51.348;6.596;2023-06-14T14:21:04;2.67;;;1.20;;
28774;SDS011;15926;51.348;6.596;2023-06-14T14:23:30;2.22;;;1.45;;
28774;SDS011;15926;51.348;6.596;2023-06-14T14:25:56;3.10;;;1.45;;
28774;SDS011;15926;51.348;6.596;2023-06-14T14:28:23;3.95;;;2.58;;
28774;SDS011;15926;51.348;6.596;2023-06-14T14:30:49;1.83;;;1.73;;
28774;SDS011;15926;51.348;6.596;2023-06-14T14:33:15;1.50;;;1.40;;
28774;SDS011;15926;51.348;6.596;2023-06-14T14:35:42;1.75;;;1.20;;
28774;SDS011;15926;51.348;6.596;2023-06-14T14:38:10;5.32;;;1.50;;
28774;SDS011;15926;51.348;6.596;2023-06-14T14:40:36;4.70;;;1.58;;
28774;SDS011;15926;51.348;6.596;2023-06-14T14:43:02;1.38;;;1.27;;
28774;SDS011;15926;51.348;6.596;2023-06-14T14:45:28;3.90;;;1.63;;
28774;SDS011;15926;51.348;6.596;2023-06-14T14:47:54;1.92;;;1.75;;
28774;SDS011;15926;51.348;6.596;2023-06-14T14:50:21;2.65;;;1.50;;
28774;SDS011;15926;51.348;6.596;2023-06-14T14:52:47;2.58;;;1.80;;
28774;SDS011;15926;51.348;6.596;2023-06-14T14:55:13;5.30;;;2.10;;
28774;SDS011;15926;51.348;6.596;2023-06-14T14:57:39;3.20;;;1.38;;
28774;SDS011;15926;51.348;6.596;2023-06-14T15:00:05;2.35;;;1.33;;
28774;SDS011;15926;51.348;6.596;2023-06-14T15:02:31;1.67;;;1.40;;
28774;SDS011;15926;51.348;6.596;2023-06-14T15:04:57;1.38;;;1.27;;
28774;SDS011;15926;51.348;6.596;2023-06-14T15:07:26;2.55;;;1.67;;